Wylie's Hourly Summary for Monday, July 9, 2018
Hour Temp
(f)
RH
(%)
Solar Rad.
(MJ/m2)
Rainfall
(in)
Wind
(mph)
7/9/2018 12:00 AM 80 68 0 0 3.48
7/9/2018 1:00 AM 79 69 0 0 3.38
7/9/2018 2:00 AM 78 75 0 0 2.75
7/9/2018 3:00 AM 77 76 0 0 2.32
7/9/2018 4:00 AM 77 79 0 0 1.98
7/9/2018 5:00 AM 77 80 0 0 2.47
7/9/2018 6:00 AM 76 81 0 0 0.33
7/9/2018 7:00 AM 76 81 0.03 0 1.21
7/9/2018 8:00 AM 76 77 0.23 0 1.17
7/9/2018 9:00 AM 79 69 1.05 0 2.24
7/9/2018 10:00 AM 83 64 1.72 0 1.92
7/9/2018 11:00 AM 83 60 1.75 0 3.46
7/9/2018 12:00 PM 85 55 2.26 0 3.38
7/9/2018 1:00 PM 85 57 2.03 0 4.73
7/9/2018 2:00 PM 86 52 3.6 0 6.33
7/9/2018 3:00 PM 86 52 3.28 0 6.61
7/9/2018 4:00 PM 86 55 2.05 0 4.78
7/9/2018 5:00 PM 84 61 0.59 0 5.13
7/9/2018 6:00 PM 86 60 1.13 0 3.6
7/9/2018 7:00 PM 86 55 0.66 0 7.89
7/9/2018 8:00 PM 81 67 0.22 0 7.34
7/9/2018 9:00 PM 80 70 0.04 0 5.11
7/9/2018 10:00 PM 80 71 0 0 4.22
7/9/2018 11:00 PM 79 72 0 0 4.23
Data Summary 81 66 20.64 0.00 3.75